createdAt,value
2022-10-13T00:01:17.200Z,99763.56
2022-10-13T00:03:47.517Z,99757.03
2022-10-13T00:06:23.483Z,99754.13
2022-10-13T00:08:51.602Z,99743.34
2022-10-13T00:11:25.243Z,99750.81
2022-10-13T00:13:56.879Z,99753.44
2022-10-13T00:16:25.641Z,99754.41
2022-10-13T00:18:53.175Z,99754.13
2022-10-13T00:21:24.205Z,99755.06
2022-10-13T00:23:53.355Z,99753.31
2022-10-13T00:26:23.225Z,99762.44
2022-10-13T00:28:52.879Z,99750.50
2022-10-13T00:31:23.755Z,99760.84
2022-10-13T00:33:51.888Z,99757.97
2022-10-13T00:36:23.316Z,99758.78
2022-10-13T00:38:52.216Z,99758.75
2022-10-13T00:41:21.331Z,99760.25
2022-10-13T00:44:00.004Z,99759.88
2022-10-13T00:46:33.615Z,99757.28
2022-10-13T00:49:11.722Z,99757.50
2022-10-13T00:51:48.154Z,99757.69
2022-10-13T00:54:24.198Z,99752.50
2022-10-13T00:56:53.427Z,99751.22
2022-10-13T00:59:29.055Z,99754.75
2022-10-13T01:01:59.414Z,99747.69
2022-10-13T01:04:31.238Z,99748.66
2022-10-13T01:06:59.083Z,99747.53
2022-10-13T01:09:26.915Z,99751.13
2022-10-13T01:12:27.949Z,99749.09
2022-10-13T01:15:17.282Z,99753.16
2022-10-13T01:18:13.983Z,99749.44
2022-10-13T01:21:19.434Z,99749.16
2022-10-13T01:24:05.969Z,99750.88
2022-10-13T01:26:48.749Z,99762.47
2022-10-13T01:29:19.046Z,99755.16
2022-10-13T01:32:16.364Z,99749.19
2022-10-13T01:34:52.381Z,99745.34
2022-10-13T01:37:31.103Z,99740.09
2022-10-13T01:40:22.166Z,99743.13
2022-10-13T01:43:08.127Z,99745.59
2022-10-13T01:45:43.931Z,99735.09
2022-10-13T01:48:15.450Z,99740.38
2022-10-13T01:50:44.590Z,99732.47
2022-10-13T01:53:13.827Z,99729.81
2022-10-13T01:55:56.672Z,99732.34
2022-10-13T01:58:27.327Z,99735.31
2022-10-13T02:01:14.720Z,99729.94
2022-10-13T02:03:48.942Z,99731.75
2022-10-13T02:06:26.315Z,99725.97
2022-10-13T02:09:05.585Z,99738.28
2022-10-13T02:11:33.262Z,99724.47
2022-10-13T02:14:08.177Z,99725.56
2022-10-13T02:16:43.524Z,99726.66
2022-10-13T02:19:14.723Z,99720.41
2022-10-13T02:21:45.249Z,99733.41
2022-10-13T02:24:13.746Z,99730.94
2022-10-13T02:26:41.928Z,99724.69
2022-10-13T02:29:16.833Z,99724.16
2022-10-13T02:31:45.517Z,99729.03
2022-10-13T02:34:13.992Z,99731.22
2022-10-13T02:36:42.377Z,99725.69
2022-10-13T02:39:11.081Z,99724.59
2022-10-13T02:41:38.904Z,99719.75
2022-10-13T02:44:07.026Z,99721.56
2022-10-13T02:46:35.594Z,99720.34
2022-10-13T02:49:03.118Z,99727.53
2022-10-13T02:51:31.871Z,99727.94
2022-10-13T02:54:01.629Z,99727.00
2022-10-13T02:56:29.145Z,99726.56
2022-10-13T02:58:56.620Z,99730.56
2022-10-13T03:01:24.055Z,99727.25
2022-10-13T03:03:51.680Z,99722.28
2022-10-13T03:06:19.384Z,99724.78
2022-10-13T03:08:47.060Z,99724.91
2022-10-13T03:11:14.574Z,99728.59
2022-10-13T03:13:42.030Z,99719.50
2022-10-13T03:16:09.518Z,99723.53
2022-10-13T03:18:37.186Z,99725.81
2022-10-13T03:21:06.764Z,99729.28
2022-10-13T03:23:34.549Z,99724.44
2022-10-13T03:26:02.235Z,99723.63
2022-10-13T03:28:30.047Z,99713.94
2022-10-13T03:31:06.115Z,99718.91
2022-10-13T03:33:33.811Z,99711.31
2022-10-13T03:36:03.173Z,99716.00
2022-10-13T03:38:32.307Z,99714.78
2022-10-13T03:41:05.770Z,99714.63
2022-10-13T03:43:33.735Z,99708.97
2022-10-13T03:46:02.985Z,99718.75
2022-10-13T03:48:31.421Z,99709.91
2022-10-13T03:50:59.865Z,99717.63
2022-10-13T03:53:28.469Z,99712.38
2022-10-13T03:55:56.528Z,99710.59
2022-10-13T03:58:24.953Z,99714.22
2022-10-13T04:00:54.253Z,99708.22
2022-10-13T04:03:21.899Z,99704.63
2022-10-13T04:05:49.336Z,99710.38
2022-10-13T04:08:18.506Z,99709.31
2022-10-13T04:10:46.408Z,99706.50
2022-10-13T04:13:13.915Z,99705.88
2022-10-13T04:15:41.894Z,99705.53
2022-10-13T04:18:10.764Z,99703.94
2022-10-13T04:20:39.954Z,99698.44
2022-10-13T04:23:08.004Z,99701.09
2022-10-13T04:25:39.134Z,99700.13
2022-10-13T04:28:07.309Z,99705.50
2022-10-13T04:30:37.019Z,99702.16
2022-10-13T04:33:07.910Z,99699.19
2022-10-13T04:35:40.390Z,99698.66
2022-10-13T04:38:07.964Z,99704.31
2022-10-13T04:40:36.055Z,99700.41
2022-10-13T04:43:03.742Z,99689.09
2022-10-13T04:45:32.949Z,99695.16
2022-10-13T04:48:01.227Z,99698.25
2022-10-13T04:50:28.869Z,99700.34
2022-10-13T04:53:01.187Z,99705.03
2022-10-13T04:55:28.746Z,99700.41
2022-10-13T04:57:56.205Z,99701.81
2022-10-13T05:00:23.830Z,99704.72
2022-10-13T05:02:51.555Z,99709.66
2022-10-13T05:05:19.181Z,99705.78
2022-10-13T05:07:46.775Z,99712.66
2022-10-13T05:10:14.943Z,99704.38
2022-10-13T05:12:42.439Z,99708.19
2022-10-13T05:15:10.199Z,99700.56
2022-10-13T05:17:37.730Z,99714.16
2022-10-13T05:20:10.083Z,99711.84
2022-10-13T05:22:37.681Z,99704.41
2022-10-13T05:25:05.513Z,99702.25
2022-10-13T05:27:33.116Z,99716.34
2022-10-13T05:30:04.527Z,99707.72
2022-10-13T05:32:32.032Z,99708.78
2022-10-13T05:34:59.526Z,99707.81
2022-10-13T05:37:27.108Z,99708.28
2022-10-13T05:39:54.791Z,99712.00
2022-10-13T05:42:22.896Z,99707.44
2022-10-13T05:44:51.181Z,99710.94
2022-10-13T05:47:18.758Z,99713.81
2022-10-13T05:49:46.188Z,99717.53
2022-10-13T05:52:13.718Z,99712.56
2022-10-13T05:54:50.928Z,99712.53
2022-10-13T05:57:28.976Z,99715.28
2022-10-13T06:00:06.528Z,99715.31
2022-10-13T06:03:03.905Z,99719.44
2022-10-13T06:05:32.827Z,99727.72
2022-10-13T06:08:00.786Z,99725.91
2022-10-13T06:10:28.508Z,99727.03
2022-10-13T06:12:55.946Z,99729.63
2022-10-13T06:15:28.014Z,99729.41
2022-10-13T06:17:57.182Z,99729.88
2022-10-13T06:20:25.317Z,99732.06
2022-10-13T06:22:54.951Z,99731.28
2022-10-13T06:25:22.614Z,99726.97
2022-10-13T06:27:50.345Z,99729.69
2022-10-13T06:30:17.990Z,99729.41
2022-10-13T06:32:45.483Z,99724.97
2022-10-13T06:35:12.967Z,99730.56
2022-10-13T06:37:40.452Z,99730.41
2022-10-13T06:40:11.378Z,99725.63
2022-10-13T06:42:38.934Z,99727.19
2022-10-13T06:45:10.105Z,99730.50
2022-10-13T06:47:41.044Z,99729.00
2022-10-13T06:50:08.949Z,99727.41
2022-10-13T06:52:37.699Z,99725.47
2022-10-13T06:55:05.744Z,99724.16
2022-10-13T06:57:33.900Z,99726.03
2022-10-13T07:00:05.724Z,99723.00
2022-10-13T07:02:34.521Z,99725.66
2022-10-13T07:05:02.170Z,99722.91
2022-10-13T07:07:29.782Z,99729.25
2022-10-13T07:09:57.547Z,99722.75
2022-10-13T07:12:57.359Z,99716.66
2022-10-13T07:15:25.667Z,99713.16
2022-10-13T07:17:54.981Z,99720.91
2022-10-13T07:20:24.191Z,99716.41
2022-10-13T07:22:54.233Z,99720.84
2022-10-13T07:25:22.679Z,99726.13
2022-10-13T07:27:50.183Z,99719.34
2022-10-13T07:30:18.641Z,99739.63
2022-10-13T07:32:48.366Z,99729.22
2022-10-13T07:35:16.113Z,99729.09
2022-10-13T07:37:44.873Z,99738.63
2022-10-13T07:40:12.907Z,99727.56
2022-10-13T07:42:40.408Z,99736.22
2022-10-13T07:45:08.404Z,99734.75
2022-10-13T07:47:36.034Z,99734.66
2022-10-13T07:50:03.968Z,99723.16
2022-10-13T07:52:31.709Z,99730.63
2022-10-13T07:54:59.319Z,99734.75
2022-10-13T07:57:27.740Z,99729.72
2022-10-13T07:59:55.495Z,99744.13
2022-10-13T08:02:23.208Z,99729.88
2022-10-13T08:04:51.102Z,99732.22
2022-10-13T08:07:19.205Z,99728.59
2022-10-13T08:09:48.081Z,99722.97
2022-10-13T08:12:15.834Z,99726.22
2022-10-13T08:14:43.386Z,99722.13
2022-10-13T08:17:11.390Z,99720.19
2022-10-13T08:19:38.918Z,99714.31
2022-10-13T08:22:09.621Z,99722.72
2022-10-13T08:24:37.693Z,99717.00
2022-10-13T08:27:05.179Z,99718.44
2022-10-13T08:29:35.672Z,99710.22
2022-10-13T08:32:03.350Z,99708.34
2022-10-13T08:34:30.894Z,99709.78
2022-10-13T08:37:00.251Z,99697.94
2022-10-13T08:39:29.501Z,99701.19
2022-10-13T08:41:57.969Z,99699.00
2022-10-13T08:45:10.440Z,99695.63
2022-10-13T08:47:29.451Z,99693.75
2022-10-13T08:50:01.186Z,99695.16
2022-10-13T08:52:41.945Z,99686.03
2022-10-13T08:55:20.383Z,99694.47
2022-10-13T08:57:48.148Z,99687.84
2022-10-13T09:00:17.593Z,99681.69
2022-10-13T09:02:50.912Z,99691.19
2022-10-13T09:05:37.372Z,99692.34
2022-10-13T09:08:15.707Z,99683.78
2022-10-13T09:10:51.325Z,99686.69
2022-10-13T09:13:20.370Z,99680.88
2022-10-13T09:15:52.573Z,99685.47
2022-10-13T09:18:28.780Z,99692.19
2022-10-13T09:21:22.953Z,99682.53
2022-10-13T09:23:52.219Z,99688.75
2022-10-13T09:26:23.483Z,99680.63
2022-10-13T09:28:52.638Z,99680.38
2022-10-13T09:31:30.585Z,99676.53
2022-10-13T09:34:09.199Z,99682.16
2022-10-13T09:36:37.963Z,99668.16
2022-10-13T09:39:16.459Z,99664.81
2022-10-13T09:41:45.282Z,99670.34
2022-10-13T09:44:33.248Z,99663.50
2022-10-13T09:47:04.374Z,99668.88
2022-10-13T09:49:43.621Z,99664.44
2022-10-13T09:52:14.246Z,99662.81
2022-10-13T09:54:41.747Z,99660.47
2022-10-13T09:57:24.786Z,99654.31
2022-10-13T10:00:10.656Z,99662.59
2022-10-13T10:02:48.680Z,99649.31
2022-10-13T10:05:38.251Z,99646.00
2022-10-13T10:08:33.680Z,99655.38
2022-10-13T10:11:28.821Z,99641.75
2022-10-13T10:13:57.910Z,99650.94
2022-10-13T10:16:38.753Z,99635.09
2022-10-13T10:19:18.085Z,99634.47
2022-10-13T10:21:55.881Z,99635.19
2022-10-13T10:24:45.498Z,99627.56
2022-10-13T10:27:26.514Z,99631.41
2022-10-13T10:30:12.966Z,99628.88
2022-10-13T10:32:51.621Z,99620.28
2022-10-13T10:35:49.103Z,99621.06
2022-10-13T10:38:36.766Z,99624.28
2022-10-13T10:41:37.499Z,99623.94
2022-10-13T10:44:12.780Z,99620.22
2022-10-13T10:46:48.253Z,99606.16
2022-10-13T10:49:23.543Z,99608.09
2022-10-13T10:51:51.819Z,99599.28
2022-10-13T10:54:24.008Z,99594.97
2022-10-13T10:56:58.509Z,99595.00
2022-10-13T10:59:31.443Z,99593.13
2022-10-13T11:02:15.066Z,99584.44
2022-10-13T11:04:44.173Z,99587.06
2022-10-13T11:07:23.746Z,99583.38
2022-10-13T11:09:54.947Z,99577.47
2022-10-13T11:12:25.638Z,99584.66
2022-10-13T11:15:11.075Z,99575.91
2022-10-13T11:17:41.263Z,99565.31
2022-10-13T11:20:21.198Z,99568.06
2022-10-13T11:22:57.572Z,99562.94
2022-10-13T11:25:40.040Z,99560.50
2022-10-13T11:28:28.218Z,99554.88
2022-10-13T11:31:17.055Z,99556.19
2022-10-13T11:33:45.731Z,99556.06
2022-10-13T11:36:32.797Z,99556.00
2022-10-13T11:39:26.078Z,99549.25
2022-10-13T11:42:02.628Z,99548.75
2022-10-13T11:44:51.495Z,99546.59
2022-10-13T11:47:29.746Z,99536.56
2022-10-13T11:49:57.451Z,99537.84
2022-10-13T11:52:40.426Z,99529.34
2022-10-13T11:55:19.626Z,99533.31
2022-10-13T11:57:48.391Z,99527.06
2022-10-13T12:00:19.019Z,99517.69
2022-10-13T12:03:22.956Z,99519.63
2022-10-13T12:05:52.807Z,99519.81
2022-10-13T12:08:23.423Z,99522.72
2022-10-13T12:10:57.328Z,99520.91
2022-10-13T12:13:30.857Z,99513.56
2022-10-13T12:16:06.082Z,99502.19
2022-10-13T12:18:38.287Z,99515.53
2022-10-13T12:21:20.572Z,99510.13
2022-10-13T12:23:53.151Z,99510.56
2022-10-13T12:26:24.684Z,99498.34
2022-10-13T12:29:14.409Z,99500.00
2022-10-13T12:31:48.512Z,99497.00
2022-10-13T12:34:19.229Z,99499.63
2022-10-13T12:36:55.221Z,99490.13
2022-10-13T12:39:25.546Z,99493.09
2022-10-13T12:41:54.519Z,99488.09
2022-10-13T12:44:26.165Z,99497.94
2022-10-13T12:46:58.794Z,99488.34
2022-10-13T12:50:14.702Z,99489.13
2022-10-13T12:52:42.374Z,99488.78
2022-10-13T12:55:19.268Z,99491.53
2022-10-13T12:57:49.623Z,99478.25
2022-10-13T13:00:20.395Z,99475.72
2022-10-13T13:03:03.715Z,99480.09
2022-10-13T13:05:38.392Z,99486.69
2022-10-13T13:08:29.829Z,99479.56
2022-10-13T13:11:20.129Z,99468.31
2022-10-13T13:13:48.522Z,99480.53
2022-10-13T13:16:16.820Z,99470.81
2022-10-13T13:18:45.595Z,99470.81
2022-10-13T13:21:16.031Z,99475.34
2022-10-13T13:23:51.034Z,99465.84
2022-10-13T13:26:23.448Z,99461.34
2022-10-13T13:28:53.538Z,99461.16
2022-10-13T13:31:24.344Z,99450.94
2022-10-13T13:33:53.152Z,99451.84
2022-10-13T13:36:26.123Z,99456.13
2022-10-13T13:38:54.885Z,99450.13
2022-10-13T13:41:24.086Z,99450.50
2022-10-13T13:43:51.579Z,99450.81
2022-10-13T13:46:25.053Z,99448.06
2022-10-13T13:48:52.786Z,99443.03
2022-10-13T13:51:20.288Z,99441.41
2022-10-13T13:53:48.618Z,99432.25
2022-10-13T13:56:19.759Z,99442.28
2022-10-13T13:58:47.924Z,99439.84
2022-10-13T14:01:15.909Z,99442.97
2022-10-13T14:03:43.863Z,99440.06
2022-10-13T14:06:19.909Z,99436.97
2022-10-13T14:08:47.920Z,99438.75
2022-10-13T14:11:16.782Z,99435.25
2022-10-13T14:13:44.380Z,99438.03
2022-10-13T14:16:17.864Z,99437.19
2022-10-13T14:18:45.766Z,99432.94
2022-10-13T14:21:13.421Z,99426.72
2022-10-13T14:23:45.677Z,99442.31
2022-10-13T14:26:14.018Z,99433.00
2022-10-13T14:28:43.161Z,99440.59
2022-10-13T14:31:11.998Z,99433.34
2022-10-13T14:33:41.905Z,99429.47
2022-10-13T14:36:10.012Z,99428.13
2022-10-13T14:38:37.523Z,99424.34
2022-10-13T14:41:06.338Z,99426.28
2022-10-13T14:43:33.889Z,99426.84
2022-10-13T14:46:05.958Z,99428.03
2022-10-13T14:48:35.227Z,99424.09
2022-10-13T14:51:10.652Z,99429.75
2022-10-13T14:53:43.502Z,99429.94
2022-10-13T14:56:27.074Z,99427.19
2022-10-13T14:58:57.570Z,99419.97
2022-10-13T15:01:33.361Z,99422.66
2022-10-13T15:04:01.962Z,99420.28
2022-10-13T15:06:31.975Z,99425.47
2022-10-13T15:09:00.118Z,99412.22
2022-10-13T15:11:27.960Z,99409.34
2022-10-13T15:13:56.309Z,99414.59
2022-10-13T15:16:27.905Z,99408.03
2022-10-13T15:18:56.224Z,99420.50
2022-10-13T15:21:24.672Z,99416.41
2022-10-13T15:23:52.267Z,99411.03
2022-10-13T15:26:20.625Z,99416.00
2022-10-13T15:28:50.897Z,99422.91
2022-10-13T15:31:21.994Z,99412.22
2022-10-13T15:33:52.109Z,99412.50
2022-10-13T15:36:25.675Z,99411.13
2022-10-13T15:38:53.200Z,99417.34
2022-10-13T15:41:23.000Z,99413.88
2022-10-13T15:43:52.116Z,99410.50
2022-10-13T15:46:26.170Z,99418.94
2022-10-13T15:48:55.195Z,99416.41
2022-10-13T15:51:24.335Z,99420.91
2022-10-13T15:53:52.514Z,99423.50
2022-10-13T15:56:20.997Z,99426.06
2022-10-13T15:58:48.609Z,99414.47
2022-10-13T16:01:17.645Z,99418.69
2022-10-13T16:03:45.412Z,99414.53
2022-10-13T16:06:14.351Z,99419.28
2022-10-13T16:08:51.597Z,99413.81
2022-10-13T16:11:21.138Z,99416.81
2022-10-13T16:13:50.717Z,99416.50
2022-10-13T16:16:19.149Z,99414.75
2022-10-13T16:18:46.668Z,99416.28
2022-10-13T16:21:19.007Z,99422.50
2022-10-13T16:23:47.613Z,99423.44
2022-10-13T16:26:17.449Z,99416.69
2022-10-13T16:28:46.011Z,99417.38
2022-10-13T16:31:15.932Z,99423.59
2022-10-13T16:33:45.213Z,99423.22
2022-10-13T16:36:15.683Z,99428.03
2022-10-13T16:38:44.128Z,99426.88
2022-10-13T16:41:14.643Z,99428.59
2022-10-13T16:43:42.818Z,99425.56
2022-10-13T16:46:13.411Z,99423.38
2022-10-13T16:48:42.251Z,99425.91
2022-10-13T16:51:13.645Z,99439.91
2022-10-13T16:53:41.387Z,99437.22
2022-10-13T16:56:09.376Z,99426.34
2022-10-13T16:58:36.882Z,99437.53
2022-10-13T17:01:11.710Z,99437.34
2022-10-13T17:03:39.858Z,99434.59
2022-10-13T17:06:07.526Z,99437.69
2022-10-13T17:08:35.168Z,99443.03
2022-10-13T17:11:05.026Z,99437.41
2022-10-13T17:13:33.932Z,99445.16
2022-10-13T17:16:01.773Z,99449.00
2022-10-13T17:18:29.644Z,99444.41
2022-10-13T17:21:02.373Z,99446.56
2022-10-13T17:23:31.107Z,99448.94
2022-10-13T17:26:04.517Z,99443.81
2022-10-13T17:28:33.464Z,99436.84
2022-10-13T17:31:05.217Z,99437.31
2022-10-13T17:33:35.126Z,99438.81
2022-10-13T17:36:07.032Z,99433.56
2022-10-13T17:38:35.035Z,99435.88
2022-10-13T17:41:05.194Z,99441.66
2022-10-13T17:43:34.584Z,99437.38
2022-10-13T17:46:35.190Z,99438.06
2022-10-13T17:49:01.732Z,99435.72
2022-10-13T17:51:29.300Z,99438.38
2022-10-13T17:54:00.590Z,99431.28
2022-10-13T17:56:29.061Z,99430.97
2022-10-13T17:58:57.001Z,99426.53
2022-10-13T18:01:31.649Z,99437.72
2022-10-13T18:04:02.296Z,99433.41
2022-10-13T18:06:37.885Z,99438.38
2022-10-13T18:09:18.377Z,99436.22
2022-10-13T18:11:50.599Z,99438.34
2022-10-13T18:14:24.452Z,99430.41
2022-10-13T18:16:52.861Z,99436.66
2022-10-13T18:19:21.451Z,99433.84
2022-10-13T18:21:49.509Z,99424.97
2022-10-13T18:24:17.193Z,99432.69
2022-10-13T18:26:44.994Z,99423.47
2022-10-13T18:29:12.892Z,99429.06
2022-10-13T18:31:41.585Z,99427.59
2022-10-13T18:34:15.613Z,99426.09
2022-10-13T18:36:47.250Z,99420.31
2022-10-13T18:39:17.792Z,99419.81
2022-10-13T18:41:49.890Z,99421.28
2022-10-13T18:44:18.053Z,99414.66
2022-10-13T18:46:48.469Z,99414.81
2022-10-13T18:49:19.040Z,99414.03
2022-10-13T18:51:46.718Z,99416.97
2022-10-13T18:54:14.272Z,99416.97
2022-10-13T18:56:41.746Z,99422.53
2022-10-13T18:59:10.699Z,99415.47
2022-10-13T19:01:39.442Z,99421.88
2022-10-13T19:04:07.234Z,99424.00
2022-10-13T19:06:35.562Z,99416.13
2022-10-13T19:09:05.885Z,99410.22
2022-10-13T19:11:37.341Z,99408.63
2022-10-13T19:14:07.066Z,99407.56
2022-10-13T19:16:39.533Z,99403.59
2022-10-13T19:19:10.275Z,99405.72
2022-10-13T19:21:39.052Z,99410.06
2022-10-13T19:24:09.588Z,99408.69
2022-10-13T19:26:37.733Z,99409.31
2022-10-13T19:29:11.427Z,99412.94
2022-10-13T19:31:40.645Z,99415.84
2022-10-13T19:34:10.088Z,99410.38
2022-10-13T19:36:43.295Z,99405.53
2022-10-13T19:39:19.900Z,99409.66
2022-10-13T19:41:48.851Z,99412.16
2022-10-13T19:44:18.220Z,99409.72
2022-10-13T19:46:47.405Z,99399.66
2022-10-13T19:49:17.532Z,99398.16
2022-10-13T19:51:46.505Z,99404.50
2022-10-13T19:54:14.850Z,99404.72
2022-10-13T19:56:47.525Z,99405.53
2022-10-13T19:59:17.429Z,99404.56
2022-10-13T20:01:45.243Z,99412.00
2022-10-13T20:04:18.505Z,99410.72
2022-10-13T20:06:47.455Z,99409.53
2022-10-13T20:09:24.734Z,99408.16
2022-10-13T20:11:55.531Z,99412.69
2022-10-13T20:14:24.489Z,99411.19
2022-10-13T20:16:59.559Z,99417.78
2022-10-13T20:19:27.213Z,99418.56
2022-10-13T20:21:54.813Z,99416.78
2022-10-13T20:24:23.401Z,99417.19
2022-10-13T20:26:53.349Z,99420.81
2022-10-13T20:29:23.424Z,99421.66
2022-10-13T20:31:50.970Z,99409.22
2022-10-13T20:34:18.406Z,99417.06
2022-10-13T20:36:45.952Z,99419.41
2022-10-13T20:39:13.510Z,99418.28
2022-10-13T20:41:42.180Z,99419.19
2022-10-13T20:44:10.559Z,99418.91
2022-10-13T20:46:38.060Z,99417.13
2022-10-13T20:49:13.595Z,99415.53
2022-10-13T20:51:42.870Z,99417.50
2022-10-13T20:54:12.033Z,99415.75
2022-10-13T20:56:39.907Z,99416.19
2022-10-13T20:59:10.699Z,99411.44
2022-10-13T21:01:38.739Z,99411.09
2022-10-13T21:04:06.774Z,99406.94
2022-10-13T21:06:35.801Z,99408.94
2022-10-13T21:09:05.392Z,99416.66
2022-10-13T21:11:33.336Z,99411.38
2022-10-13T21:14:06.239Z,99406.47
2022-10-13T21:16:34.280Z,99404.22
2022-10-13T21:19:01.945Z,99407.78
2022-10-13T21:21:31.873Z,99405.00
2022-10-13T21:24:01.670Z,99398.53
2022-10-13T21:26:31.601Z,99403.97
2022-10-13T21:29:00.732Z,99401.50
2022-10-13T21:31:29.425Z,99401.16
2022-10-13T21:33:56.990Z,99396.41
2022-10-13T21:36:32.991Z,99403.47
2022-10-13T21:39:03.644Z,99406.03
2022-10-13T21:41:31.597Z,99412.03
2022-10-13T21:43:59.126Z,99404.75
2022-10-13T21:46:32.512Z,99404.47
2022-10-13T21:49:06.414Z,99402.88
2022-10-13T21:51:37.838Z,99404.97
2022-10-13T21:54:13.881Z,99404.13
2022-10-13T21:56:42.187Z,99396.72
2022-10-13T21:59:12.134Z,99400.50
2022-10-13T22:01:39.726Z,99398.59
2022-10-13T22:04:14.110Z,99392.50
2022-10-13T22:06:42.171Z,99390.22
2022-10-13T22:09:09.953Z,99389.09
2022-10-13T22:11:39.394Z,99381.47
2022-10-13T22:14:12.983Z,99391.81
2022-10-13T22:16:46.807Z,99387.66
2022-10-13T22:19:15.439Z,99389.06
2022-10-13T22:21:45.197Z,99395.31
2022-10-13T22:24:16.342Z,99394.03
2022-10-13T22:26:45.461Z,99386.72
2022-10-13T22:29:15.595Z,99390.00
2022-10-13T22:31:43.841Z,99379.59
2022-10-13T22:34:13.792Z,99389.53
2022-10-13T22:36:44.772Z,99381.09
2022-10-13T22:39:13.636Z,99376.16
2022-10-13T22:41:41.685Z,99371.66
2022-10-13T22:44:09.486Z,99371.84
2022-10-13T22:46:38.487Z,99375.16
2022-10-13T22:49:09.684Z,99381.53
2022-10-13T22:51:37.438Z,99375.41
2022-10-13T22:54:05.622Z,99377.78
2022-10-13T22:56:34.571Z,99369.78
2022-10-13T22:59:05.637Z,99378.56
2022-10-13T23:01:33.256Z,99372.19
2022-10-13T23:04:00.886Z,99369.78
2022-10-13T23:06:30.835Z,99379.47
2022-10-13T23:09:02.475Z,99368.03
2022-10-13T23:11:30.372Z,99371.19
2022-10-13T23:13:57.923Z,99366.41
2022-10-13T23:16:26.869Z,99370.41
2022-10-13T23:18:55.184Z,99375.84
2022-10-13T23:21:28.555Z,99369.03
2022-10-13T23:23:58.452Z,99361.56
2022-10-13T23:26:26.483Z,99366.34
2022-10-13T23:28:56.331Z,99370.91
2022-10-13T23:31:24.869Z,99368.13
2022-10-13T23:33:52.473Z,99364.19
2022-10-13T23:36:24.147Z,99359.97
2022-10-13T23:38:56.251Z,99366.69
2022-10-13T23:41:24.115Z,99369.53
2022-10-13T23:43:51.658Z,99367.47
2022-10-13T23:46:19.880Z,99365.34
2022-10-13T23:48:47.740Z,99362.66
2022-10-13T23:51:19.893Z,99356.94
2022-10-13T23:53:47.388Z,99361.09
2022-10-13T23:56:16.022Z,99354.72
2022-10-13T23:58:44.430Z,99354.84
